Time;durP1;ratioP1;P1;durP2;ratioP2;P2;SDS_P1;SDS_P2;PMS_P1;PMS_P2;Temp;Humidity;BMP_temperature;BMP_pressure;BME280_temperature;BME280_humidity;BME280_pressure;Samples;Min_cycle;Max_cycle;Signal;HPM_P1;HPM_P2
2022/08/30 00:03:13;;;;;;;;;;;;;;;29.42;39.84;94445.25;4988719;28;9814;-61
2022/08/30 00:06:08;;;;;;;;;;;;;;;29.41;39.59;94451.31;4988424;28;7310;-61
2022/08/30 00:08:37;;;;;;;;;;;;;;;29.40;39.78;94450.59;4909827;29;8390;-61
2022/08/30 00:11:31;;;;;;;;;;;;;;;29.40;39.94;94458.91;4894909;29;8277;-61
2022/08/30 00:14:13;;;;;;;;;;;;;;;29.41;39.59;94459.63;4886443;29;7300;-60
2022/08/30 00:16:51;;;;;;;;;;;;;;;29.41;39.84;94463.16;4902527;29;9048;-60
2022/08/30 00:19:34;;;;;;;;;;;;;;;29.39;39.65;94457.41;4894360;29;7072;-61
2022/08/30 00:22:01;;;;;;;;;;;;;;;29.41;40.22;94451.31;4910649;29;9253;-61
2022/08/30 00:24:39;;;;;;;;;;;;;;;29.38;39.44;94446.88;4906243;29;7631;-61
2022/08/30 00:27:06;;;;;;;;;;;;;;;29.36;39.53;94444.59;4900793;29;7626;-60
2022/08/30 00:29:34;;;;;;;;;;;;;;;29.36;39.36;94441.84;4905430;29;9442;-61
2022/08/30 00:32:20;;;;;;;;;;;;;;;29.36;39.24;94435.56;4910111;29;7598;-60
2022/08/30 00:34:47;;;;;;;;;;;;;;;29.35;40.13;94431.28;4911050;29;9768;-60
2022/08/30 00:37:31;;;;;;;;;;;;;;;29.34;39.76;94438.13;4898292;29;7263;-60
2022/08/30 00:40:04;;;;;;;;;;;;;;;29.34;39.37;94447.16;4909561;29;7755;-61
2022/08/30 00:42:32;;;;;;;;;;;;;;;29.33;40.02;94442.16;4908959;29;9149;-60
2022/08/30 00:45:15;;;;;;;;;;;;;;;29.33;39.74;94437.38;4924671;28;7416;-61
2022/08/30 00:47:42;;;;;;;;;;;;;;;29.33;39.48;94434.63;4988688;28;8740;-61
2022/08/30 00:50:13;;;;;;;;;;;;;;;29.34;40.06;94429.81;4986011;28;7212;-60
2022/08/30 00:52:49;;;;;;;;;;;;;;;29.34;39.56;94429.81;4987244;28;7202;-61
2022/08/30 00:55:17;;;;;;;;;;;;;;;29.35;39.40;94432.06;4985891;28;8049;-60
2022/08/30 00:57:45;;;;;;;;;;;;;;;29.33;39.36;94434.63;4969270;28;7182;-60
2022/08/30 01:00:15;;;;;;;;;;;;;;;29.34;40.01;94441.63;4979537;28;7345;-60
2022/08/30 01:02:43;;;;;;;;;;;;;;;29.33;39.53;94437.38;5005593;28;7108;-60
2022/08/30 01:05:12;;;;;;;;;;;;;;;29.34;39.63;94435.38;4986934;28;7457;-60
2022/08/30 01:07:44;;;;;;;;;;;;;;;29.33;40.16;94436.63;4985600;28;7255;-61
2022/08/30 01:10:14;;;;;;;;;;;;;;;29.32;39.98;94433.09;5005130;28;7263;-60
2022/08/30 01:12:42;;;;;;;;;;;;;;;29.32;40.07;94426.84;4987611;28;7099;-60
2022/08/30 01:15:13;;;;;;;;;;;;;;;29.32;39.88;94433.09;4993336;28;8203;-60
2022/08/30 01:17:42;;;;;;;;;;;;;;;29.31;40.05;94426.09;5005923;28;7860;-60
2022/08/30 01:20:12;;;;;;;;;;;;;;;29.31;39.94;94428.09;4986255;28;7226;-60
2022/08/30 01:22:48;;;;;;;;;;;;;;;29.30;39.66;94430.13;4987690;28;8601;-61
2022/08/30 01:25:25;;;;;;;;;;;;;;;29.29;39.63;94433.44;4989264;28;9079;-60
2022/08/30 01:28:00;;;;;;;;;;;;;;;29.29;39.29;94438.97;4988009;28;7051;-60
2022/08/30 01:30:32;;;;;;;;;;;;;;;29.29;39.65;94444.53;5002740;28;7250;-61
2022/08/30 01:33:02;;;;;;;;;;;;;;;29.28;39.20;94437.47;4986615;28;9832;-60
2022/08/30 01:35:37;;;;;;;;;;;;;;;29.26;39.92;94449.09;4990027;28;7287;-60
2022/08/30 01:38:12;;;;;;;;;;;;;;;29.27;39.95;94450.59;4987940;28;7522;-60
2022/08/30 01:40:41;;;;;;;;;;;;;;;29.29;39.77;94444.53;4990716;28;7192;-61
2022/08/30 01:43:18;;;;;;;;;;;;;;;29.28;39.03;94443.78;4993858;28;7916;-60
2022/08/30 01:45:47;;;;;;;;;;;;;;;29.28;39.10;94443.78;4991145;28;9309;-61
2022/08/30 01:48:20;;;;;;;;;;;;;;;29.28;39.92;94437.47;4974389;28;7445;-60
2022/08/30 01:51:02;;;;;;;;;;;;;;;29.27;39.97;94436.00;5008581;28;8989;-61
2022/08/30 01:54:06;;;;;;;;;;;;;;;29.28;39.27;94434.72;4988225;28;7215;-61
2022/08/30 01:56:33;;;;;;;;;;;;;;;29.26;39.65;94442.81;4992680;28;9481;-61
2022/08/30 01:58:59;;;;;;;;;;;;;;;29.25;40.04;94449.66;4978122;28;9402;-61
2022/08/30 02:01:30;;;;;;;;;;;;;;;29.21;39.69;94444.41;4992075;28;7104;-61
2022/08/30 02:04:01;;;;;;;;;;;;;;;29.24;39.43;94451.66;4992597;28;9124;-61
2022/08/30 02:06:31;;;;;;;;;;;;;;;29.25;39.60;94441.34;4991609;28;7107;-60
2022/08/30 02:09:12;;;;;;;;;;;;;;;29.24;39.90;94443.34;4977117;28;6980;-60
2022/08/30 02:11:49;;;;;;;;;;;;;;;29.24;39.75;94448.16;5008740;28;7175;-60
2022/08/30 02:14:26;;;;;;;;;;;;;;;29.24;39.58;94450.91;5009009;28;7085;-61
2022/08/30 02:17:18;;;;;;;;;;;;;;;29.22;39.65;94445.16;4985744;28;9153;-61
2022/08/30 02:19:45;;;;;;;;;;;;;;;29.22;38.94;94447.94;4992277;28;7224;-60
2022/08/30 02:22:32;;;;;;;;;;;;;;;29.23;39.56;94443.91;4986078;28;7105;-60
2022/08/30 02:25:07;;;;;;;;;;;;;;;29.23;39.74;94436.31;4990385;28;7404;-61
2022/08/30 02:27:39;;;;;;;;;;;;;;;29.23;39.25;94443.91;4986226;28;9556;-61
2022/08/30 02:30:35;;;;;;;;;;;;;;;29.24;39.92;94439.84;5008100;28;7231;-60
2022/08/30 02:33:10;;;;;;;;;;;;;;;29.23;39.59;94433.53;4951398;28;8302;-61
2022/08/30 02:35:40;;;;;;;;;;;;;;;29.24;39.79;94432.28;4953047;28;7531;-61
2022/08/30 02:38:08;;;;;;;;;;;;;;;29.24;39.38;94431.53;4936809;28;10623;-60
2022/08/30 02:41:02;;;;;;;;;;;;;;;29.24;39.28;94435.03;4953367;28;7243;-61
2022/08/30 02:43:46;;;;;;;;;;;;;;;29.23;39.87;94419.69;4951220;28;7163;-60
2022/08/30 02:46:47;;;;;;;;;;;;;;;29.24;39.86;94421.19;4951020;28;7641;-60
2022/08/30 02:49:16;;;;;;;;;;;;;;;29.24;39.29;94417.66;4895611;29;8950;-60
2022/08/30 02:52:16;;;;;;;;;;;;;;;29.22;39.74;94409.16;4896923;29;8677;-61
2022/08/30 02:54:43;;;;;;;;;;;;;;;29.21;39.29;94399.38;4839938;29;7187;-61
2022/08/30 02:57:09;;;;;;;;;;;;;;;29.21;39.11;94408.41;4836324;29;8402;-60
2022/08/30 02:59:42;;;;;;;;;;;;;;;29.20;39.31;94404.16;4835953;29;7535;-60
2022/08/30 03:02:11;;;;;;;;;;;;;;;29.19;39.34;94405.41;4838211;29;8418;-60
2022/08/30 03:04:38;;;;;;;;;;;;;;;29.19;39.45;94401.94;4838927;29;9227;-60
2022/08/30 03:07:42;;;;;;;;;;;;;;;29.16;39.74;94406.50;4837059;29;7305;-61
2022/08/30 03:10:34;;;;;;;;;;;;;;;29.18;39.37;94395.63;4849538;29;6987;-61
2022/08/30 03:13:00;;;;;;;;;;;;;;;29.18;39.27;94400.41;4856515;29;8609;-61
2022/08/30 03:15:34;;;;;;;;;;;;;;;29.18;38.62;94401.16;4841932;29;7232;-60
2022/08/30 03:18:09;;;;;;;;;;;;;;;29.17;38.95;94391.34;4855572;29;9048;-60
2022/08/30 03:20:40;;;;;;;;;;;;;;;29.17;39.27;94387.88;4873188;29;7035;-61
2022/08/30 03:23:06;;;;;;;;;;;;;;;29.13;38.90;94374.28;4904185;28;7073;-61
2022/08/30 03:25:43;;;;;;;;;;;;;;;29.13;38.74;94377.06;4940993;28;9407;-61
2022/08/30 03:28:09;;;;;;;;;;;;;;;29.13;39.35;94377.06;4935467;28;6928;-60
2022/08/30 03:30:42;;;;;;;;;;;;;;;29.09;39.13;94366.31;4947840;28;7148;-61
2022/08/30 03:33:14;;;;;;;;;;;;;;;29.07;39.46;94368.88;5007185;28;7169;-61
2022/08/30 03:35:48;;;;;;;;;;;;;;;29.07;39.53;94373.66;4973464;28;7408;-61
2022/08/30 03:38:16;;;;;;;;;;;;;;;29.06;39.16;94372.16;4985055;28;7208;-60
2022/08/30 03:40:42;;;;;;;;;;;;;;;29.07;38.95;94366.13;4990649;28;7176;-60
2022/08/30 03:43:14;;;;;;;;;;;;;;;29.08;39.42;94367.59;4983616;28;7346;-60
2022/08/30 03:45:59;;;;;;;;;;;;;;;29.06;39.65;94372.16;5004112;28;7426;-61
2022/08/30 03:48:35;;;;;;;;;;;;;;;29.04;39.72;94381.03;4991161;28;7201;-60
2022/08/30 03:51:02;;;;;;;;;;;;;;;29.03;39.10;94376.78;4972378;28;7770;-61
2022/08/30 03:53:28;;;;;;;;;;;;;;;29.04;39.57;94369.19;4989528;28;7011;-60
2022/08/30 03:55:58;;;;;;;;;;;;;;;29.05;39.48;94370.69;5001741;28;7187;-61
2022/08/30 03:58:27;;;;;;;;;;;;;;;29.05;39.55;94370.69;4983032;28;8681;-60
2022/08/30 04:00:53;;;;;;;;;;;;;;;29.08;39.26;94381.44;4987449;28;9799;-60
2022/08/30 04:03:24;;;;;;;;;;;;;;;29.07;39.47;94379.97;4971882;28;9479;-60
2022/08/30 04:05:54;;;;;;;;;;;;;;;29.08;39.50;94372.38;4982525;28;7648;-61
2022/08/30 04:08:21;;;;;;;;;;;;;;;29.07;39.06;94371.66;4997034;28;7384;-61
2022/08/30 04:10:47;;;;;;;;;;;;;;;29.08;38.48;94372.38;4982662;28;7199;-61
2022/08/30 04:13:15;;;;;;;;;;;;;;;29.07;39.54;94366.13;4984852;28;8191;-61
2022/08/30 04:15:54;;;;;;;;;;;;;;;29.09;39.82;94374.63;4985798;28;7260;-60
2022/08/30 04:18:23;;;;;;;;;;;;;;;29.10;39.19;94378.16;4992480;28;7186;-60
2022/08/30 04:20:54;;;;;;;;;;;;;;;29.08;39.14;94389.00;4985386;28;9188;-61
2022/08/30 04:23:33;;;;;;;;;;;;;;;29.06;39.24;94388.78;4989503;28;7259;-61
2022/08/30 04:26:12;;;;;;;;;;;;;;;29.07;39.17;94391.03;4971309;28;7116;-61
2022/08/30 04:28:40;;;;;;;;;;;;;;;29.08;38.92;94386.97;5006317;28;7123;-60
2022/08/30 04:31:15;;;;;;;;;;;;;;;29.08;39.45;94398.06;5008134;28;9108;-60
2022/08/30 04:33:44;;;;;;;;;;;;;;;29.09;38.91;94393.25;5001840;28;8296;-60
2022/08/30 04:36:12;;;;;;;;;;;;;;;29.09;39.59;94390.50;4994875;28;9480;-61
2022/08/30 04:38:43;;;;;;;;;;;;;;;29.09;39.00;94396.78;4992104;28;7229;-61
2022/08/30 04:41:21;;;;;;;;;;;;;;;29.08;39.10;94398.06;4991413;28;7283;-61
2022/08/30 04:43:49;;;;;;;;;;;;;;;29.07;38.82;94410.44;4989535;28;7275;-61
2022/08/30 04:46:19;;;;;;;;;;;;;;;29.06;39.25;94408.16;4994801;28;7325;-61
2022/08/30 04:48:46;;;;;;;;;;;;;;;29.06;39.67;94410.94;4991928;28;7443;-61
2022/08/30 04:51:14;;;;;;;;;;;;;;;29.02;42.88;94411.28;4992855;28;8845;-61
2022/08/30 04:53:49;;;;;;;;;;;;;;;29.02;43.28;94411.28;4995491;28;7244;-61
2022/08/30 04:56:25;;;;;;;;;;;;;;;29.05;43.06;94426.84;4990762;28;7767;-61
2022/08/30 04:58:56;;;;;;;;;;;;;;;29.07;41.46;94421.50;5006762;28;7387;-60
2022/08/30 05:01:28;;;;;;;;;;;;;;;29.05;41.65;94421.28;5009987;28;7307;-61
2022/08/30 05:04:05;;;;;;;;;;;;;;;29.03;41.93;94428.63;4990355;28;8299;-61
2022/08/30 05:06:51;;;;;;;;;;;;;;;29.02;41.68;94433.44;5005806;28;7202;-60
2022/08/30 05:09:26;;;;;;;;;;;;;;;29.02;40.91;94438.97;4993109;28;7628;-61
2022/08/30 05:11:52;;;;;;;;;;;;;;;29.03;40.39;94434.19;4996197;28;7223;-60
2022/08/30 05:14:33;;;;;;;;;;;;;;;29.04;40.67;94441.19;5009621;28;7232;-61
2022/08/30 05:17:11;;;;;;;;;;;;;;;29.03;40.10;94446.00;4993195;28;8409;-61
2022/08/30 05:19:43;;;;;;;;;;;;;;;29.01;40.48;94448.53;5008448;28;7239;-61
2022/08/30 05:22:10;;;;;;;;;;;;;;;29.01;40.61;94448.53;4989339;28;7060;-60
2022/08/30 05:24:45;;;;;;;;;;;;;;;29.02;40.61;94449.28;4998953;28;7194;-60
2022/08/30 05:27:12;;;;;;;;;;;;;;;29.03;40.32;94450.78;5005756;28;7088;-60
2022/08/30 05:29:56;;;;;;;;;;;;;;;29.02;39.95;94444.50;5006939;28;7243;-60
2022/08/30 05:32:31;;;;;;;;;;;;;;;29.02;40.27;94449.28;4980682;28;7300;-61
2022/08/30 05:34:58;;;;;;;;;;;;;;;29.01;39.99;94456.84;4980378;28;9133;-61
2022/08/30 05:37:34;;;;;;;;;;;;;;;29.00;40.85;94466.44;4990734;28;9591;-61
2022/08/30 05:40:16;;;;;;;;;;;;;;;29.01;40.53;94465.16;4990458;28;7178;-61
2022/08/30 05:42:45;;;;;;;;;;;;;;;29.02;40.00;94466.66;4995016;28;7405;-61
2022/08/30 05:45:41;;;;;;;;;;;;;;;29.01;40.56;94467.91;5008462;28;7242;-61
2022/08/30 05:48:11;;;;;;;;;;;;;;;28.99;39.94;94467.72;4967398;28;7275;-61
2022/08/30 05:50:47;;;;;;;;;;;;;;;28.99;40.27;94472.53;4970610;28;7723;-61
2022/08/30 05:53:18;;;;;;;;;;;;;;;28.93;40.16;94469.84;4969414;28;7240;-61
2022/08/30 05:56:14;;;;;;;;;;;;;;;28.91;40.64;94471.66;4972085;28;9967;-61
2022/08/30 05:58:40;;;;;;;;;;;;;;;28.86;40.40;94473.22;4929634;28;7070;-60
2022/08/30 06:01:06;;;;;;;;;;;;;;;28.82;40.37;94469.28;4931005;28;7150;-61
2022/08/30 06:03:33;;;;;;;;;;;;;;;28.79;40.85;94465.59;4925453;29;9655;-61
2022/08/30 06:06:02;;;;;;;;;;;;;;;28.79;40.25;94470.38;4916798;29;7317;-61
2022/08/30 06:08:32;;;;;;;;;;;;;;;28.77;40.07;94473.66;4917545;29;7017;-61
2022/08/30 06:11:18;;;;;;;;;;;;;;;28.74;40.36;94468.44;4933109;28;7305;-61
2022/08/30 06:13:56;;;;;;;;;;;;;;;28.74;40.35;94468.44;4931589;29;9126;-61
2022/08/30 06:16:48;;;;;;;;;;;;;;;28.72;40.27;94460.66;4918034;28;7292;-61
2022/08/30 06:19:24;;;;;;;;;;;;;;;28.76;40.37;94466.63;4913637;29;8111;-61
2022/08/30 06:21:59;;;;;;;;;;;;;;;28.79;40.53;94465.59;4930960;29;7320;-61
2022/08/30 06:24:44;;;;;;;;;;;;;;;28.82;40.25;94466.53;4938875;28;7160;-61
2022/08/30 06:27:21;;;;;;;;;;;;;;;28.82;40.59;94464.50;4943872;28;7214;-61
2022/08/30 06:29:57;;;;;;;;;;;;;;;28.82;40.29;94458.97;4935979;28;9392;-61
2022/08/30 06:32:34;;;;;;;;;;;;;;;28.83;40.20;94460.47;4942936;28;7513;-61
2022/08/30 06:35:04;;;;;;;;;;;;;;;28.83;40.16;94454.94;4963443;28;9502;-61
2022/08/30 06:37:36;;;;;;;;;;;;;;;28.84;40.38;94456.41;4975981;28;7168;-60
2022/08/30 06:40:07;;;;;;;;;;;;;;;28.84;40.44;94456.41;4971296;28;7338;-60
2022/08/30 06:42:55;;;;;;;;;;;;;;;28.80;40.47;94449.69;4988887;28;8616;-61
2022/08/30 06:45:29;;;;;;;;;;;;;;;28.80;40.53;94450.44;4990452;28;9792;-60
2022/08/30 06:48:14;;;;;;;;;;;;;;;28.80;40.58;94450.44;4991439;28;7219;-61
2022/08/30 06:50:51;;;;;;;;;;;;;;;28.80;40.79;94447.69;4987730;28;8957;-61
2022/08/30 06:53:35;;;;;;;;;;;;;;;28.78;40.59;94444.69;5006390;28;7450;-60
2022/08/30 06:56:13;;;;;;;;;;;;;;;28.76;40.49;94444.47;4990842;28;9767;-60
2022/08/30 06:58:41;;;;;;;;;;;;;;;28.75;40.88;94442.97;5006463;28;7205;-60
2022/08/30 07:01:14;;;;;;;;;;;;;;;28.76;40.40;94450.03;5002941;28;8847;-61
2022/08/30 07:03:52;;;;;;;;;;;;;;;28.74;40.67;94441.50;5005455;28;7210;-61
2022/08/30 07:06:19;;;;;;;;;;;;;;;28.74;40.51;94444.28;4986497;28;6990;-60
2022/08/30 07:08:48;;;;;;;;;;;;;;;28.76;40.46;94449.25;4984934;28;7701;-60
2022/08/30 07:11:24;;;;;;;;;;;;;;;28.74;40.61;94437.97;4986189;28;7184;-60
2022/08/30 07:14:00;;;;;;;;;;;;;;;28.74;40.38;94441.50;4991958;28;7208;-60
2022/08/30 07:16:42;;;;;;;;;;;;;;;28.75;40.70;94436.72;4991071;28;9452;-61
2022/08/30 07:19:08;;;;;;;;;;;;;;;28.74;41.03;94429.69;4993212;28;8745;-60
2022/08/30 07:21:47;;;;;;;;;;;;;;;28.72;41.09;94427.44;5009213;28;9217;-60
2022/08/30 07:24:18;;;;;;;;;;;;;;;28.76;40.77;94433.41;5005091;28;8151;-61
2022/08/30 07:26:50;;;;;;;;;;;;;;;28.77;40.73;94434.91;4987130;28;7197;-61
2022/08/30 07:29:22;;;;;;;;;;;;;;;28.78;40.94;94432.88;4982497;28;7066;-60
2022/08/30 07:31:49;;;;;;;;;;;;;;;28.78;41.07;94430.84;4987671;28;7273;-61
2022/08/30 07:34:27;;;;;;;;;;;;;;;28.79;40.79;94429.59;5013610;28;7251;-60
2022/08/30 07:37:02;;;;;;;;;;;;;;;28.79;41.17;94432.38;4988037;28;9450;-60
2022/08/30 07:39:34;;;;;;;;;;;;;;;28.80;41.55;94431.06;5010348;28;8802;-60
2022/08/30 07:42:06;;;;;;;;;;;;;;;28.81;41.46;94429.06;5007309;28;7285;-60
2022/08/30 07:44:32;;;;;;;;;;;;;;;28.82;41.10;94428.50;4988436;28;8932;-61
2022/08/30 07:47:10;;;;;;;;;;;;;;;28.82;41.30;94436.06;5010080;28;7304;-60
2022/08/30 07:50:24;;;;;;;;;;;;;;;28.82;41.63;94431.28;4995465;28;7539;-61
2022/08/30 07:53:19;;;;;;;;;;;;;;;28.80;41.27;94431.06;4952130;28;7692;-61
2022/08/30 07:55:45;;;;;;;;;;;;;;;28.80;41.79;94442.16;4882430;29;7930;-61
2022/08/30 07:58:14;;;;;;;;;;;;;;;28.81;41.43;94440.13;4886973;29;7002;-61
2022/08/30 08:00:39;;;;;;;;;;;;;;;28.81;41.41;94429.81;4896380;29;7211;-61
2022/08/30 08:03:08;;;;;;;;;;;;;;;28.81;41.33;94429.81;4900767;29;7585;-61
2022/08/30 08:05:47;;;;;;;;;;;;;;;28.82;41.22;94434.06;4902436;29;9449;-61
2022/08/30 08:08:15;;;;;;;;;;;;;;;28.82;41.37;94428.50;4903946;29;7623;-61
2022/08/30 08:10:52;;;;;;;;;;;;;;;28.84;41.47;94433.53;4905992;29;7871;-61
2022/08/30 08:13:30;;;;;;;;;;;;;;;28.83;41.44;94438.31;4899940;29;9655;-61
2022/08/30 08:15:58;;;;;;;;;;;;;;;28.85;42.03;94435.75;4909619;29;6936;-61
2022/08/30 08:18:33;;;;;;;;;;;;;;;28.85;41.52;94437.78;4891922;29;6933;-61
2022/08/30 08:21:00;;;;;;;;;;;;;;;28.85;41.77;94443.31;4885525;29;9238;-61
2022/08/30 08:23:27;;;;;;;;;;;;;;;28.86;41.99;94436.53;4902317;29;7010;-60
2022/08/30 08:26:23;;;;;;;;;;;;;;;28.87;41.69;94438.75;4904430;29;8561;-61
2022/08/30 08:28:50;;;;;;;;;;;;;;;28.87;42.02;94427.66;4840310;29;7499;-60
2022/08/30 08:31:18;;;;;;;;;;;;;;;28.88;42.08;94429.16;4865466;29;7675;-61
2022/08/30 08:33:44;;;;;;;;;;;;;;;28.89;42.21;94430.66;4947591;28;7187;-61
2022/08/30 08:36:30;;;;;;;;;;;;;;;28.91;41.89;94433.63;4941386;28;7299;-61
2022/08/30 08:39:21;;;;;;;;;;;;;;;28.91;42.12;94430.88;4932533;28;7182;-61
2022/08/30 08:42:19;;;;;;;;;;;;;;;28.91;41.53;94432.88;4933450;28;7213;-61
2022/08/30 08:45:31;;;;;;;;;;;;;;;28.91;42.39;94427.34;4952880;28;7261;-61
2022/08/30 08:48:30;;;;;;;;;;;;;;;28.93;42.00;94430.31;4880497;29;7360;-61
2022/08/30 08:53:59;;;;;;;;;;;;;;;28.92;41.88;94429.59;4888057;29;7235;-61
2022/08/30 08:56:25;;;;;;;;;;;;;;;28.90;41.67;94432.16;4881989;29;7257;-61
2022/08/30 08:58:56;;;;;;;;;;;;;;;28.91;41.69;94433.63;4865274;29;6983;-61
2022/08/30 09:01:26;;;;;;;;;;;;;;;28.91;41.96;94438.41;4867990;29;9916;-61
2022/08/30 09:04:16;;;;;;;;;;;;;;;28.92;41.91;94446.22;4869188;29;7204;-61
2022/08/30 09:06:56;;;;;;;;;;;;;;;28.93;41.92;94433.09;4898910;29;9388;-61
2022/08/30 09:09:33;;;;;;;;;;;;;;;28.94;42.05;94437.38;4893353;29;9422;-61
2022/08/30 09:12:15;;;;;;;;;;;;;;;28.95;41.95;94438.84;4886815;29;9449;-61
2022/08/30 09:15:27;;;;;;;;;;;;;;;28.96;41.24;94437.56;4907234;29;7010;-61
2022/08/30 09:18:03;;;;;;;;;;;;;;;28.97;41.52;94437.03;4872938;29;7239;-61
2022/08/30 09:20:45;;;;;;;;;;;;;;;28.95;41.43;94436.81;4908723;29;7256;-61
2022/08/30 09:23:17;;;;;;;;;;;;;;;28.97;41.28;94439.09;4918205;29;9449;-61
2022/08/30 09:26:06;;;;;;;;;;;;;;;28.98;41.75;94435.03;4920705;29;7486;-61
2022/08/30 09:28:43;;;;;;;;;;;;;;;28.97;42.15;94441.84;4906601;29;7214;-61
2022/08/30 09:31:19;;;;;;;;;;;;;;;28.99;41.84;94431.72;4898538;29;7233;-61
2022/08/30 09:34:08;;;;;;;;;;;;;;;29.00;41.24;94441.53;4906342;29;8818;-61
2022/08/30 09:36:55;;;;;;;;;;;;;;;29.00;42.11;94433.22;4901909;29;10147;-61
2022/08/30 09:39:43;;;;;;;;;;;;;;;29.00;41.48;94426.91;4897607;29;8420;-61
2022/08/30 09:42:38;;;;;;;;;;;;;;;29.02;41.92;94435.44;4924227;29;7334;-61
2022/08/30 09:45:41;;;;;;;;;;;;;;;29.03;41.36;94440.47;4917591;29;9374;-61
2022/08/30 09:48:43;;;;;;;;;;;;;;;29.03;41.71;94436.94;4832086;29;7440;-61
2022/08/30 09:51:41;;;;;;;;;;;;;;;29.03;41.73;94443.25;4859042;29;9415;-61
2022/08/30 09:54:34;;;;;;;;;;;;;;;29.04;41.36;94439.19;4880914;29;7563;-61
2022/08/30 09:57:22;;;;;;;;;;;;;;;29.05;41.66;94442.69;4894226;29;7236;-61
2022/08/30 10:00:00;;;;;;;;;;;;;;;29.05;41.52;94437.91;4868257;29;7864;-61
2022/08/30 10:02:56;;;;;;;;;;;;;;;29.08;41.44;94436.06;4880873;29;7359;-61
2022/08/30 10:05:24;;;;;;;;;;;;;;;29.09;41.79;94432.03;4823561;29;9771;-61
2022/08/30 10:07:53;;;;;;;;;;;;;;;29.10;42.19;94425.22;4854108;29;7272;-61
2022/08/30 10:10:22;;;;;;;;;;;;;;;29.12;41.21;94419.16;4849706;29;7278;-61
2022/08/30 10:13:15;;;;;;;;;;;;;;;29.09;41.78;94421.72;4836781;29;9107;-61
2022/08/30 10:16:12;;;;;;;;;;;;;;;29.11;41.86;94415.63;4856832;29;7424;-61
2022/08/30 10:19:07;;;;;;;;;;;;;;;29.13;41.71;94420.63;4856256;29;7768;-61
2022/08/30 10:22:02;;;;;;;;;;;;;;;29.13;41.95;94418.63;4873391;29;7500;-61
2022/08/30 10:24:58;;;;;;;;;;;;;;;29.16;41.53;94419.56;4920415;28;9186;-61
2022/08/30 10:27:30;;;;;;;;;;;;;;;29.17;41.47;94423.88;4945027;28;7204;-61
2022/08/30 10:30:16;;;;;;;;;;;;;;;29.16;41.50;94422.34;4935090;28;10491;-61
2022/08/30 10:33:05;;;;;;;;;;;;;;;29.17;42.19;94427.38;4936979;28;9002;-61
2022/08/30 10:35:57;;;;;;;;;;;;;;;29.19;41.39;94413.00;4946375;28;7500;-61
2022/08/30 10:38:35;;;;;;;;;;;;;;;29.22;42.02;94417.47;4946658;28;9114;-61
2022/08/30 10:41:46;;;;;;;;;;;;;;;29.21;41.79;94416.72;4947311;28;8500;-61
2022/08/30 10:44:40;;;;;;;;;;;;;;;29.23;41.39;94416.19;5007236;28;7259;-61
2022/08/30 10:47:56;;;;;;;;;;;;;;;29.24;41.57;94406.59;4992711;28;9390;-61
2022/08/30 10:50:31;;;;;;;;;;;;;;;29.24;41.73;94410.09;4971407;28;7320;-61
2022/08/30 10:53:18;;;;;;;;;;;;;;;29.23;41.63;94408.59;4967309;28;9267;-61
2022/08/30 10:56:04;;;;;;;;;;;;;;;29.23;41.66;94410.66;4970458;28;9196;-61
2022/08/30 10:58:34;;;;;;;;;;;;;;;29.23;41.83;94413.44;4954286;28;9617;-61
2022/08/30 11:01:24;;;;;;;;;;;;;;;29.23;42.30;94416.91;4970758;28;7563;-61
2022/08/30 11:04:30;;;;;;;;;;;;;;;29.26;42.21;94409.56;4971885;28;7353;-61
2022/08/30 11:07:21;;;;;;;;;;;;;;;29.27;41.48;94397.22;4971050;28;7294;-61
2022/08/30 11:10:01;;;;;;;;;;;;;;;29.28;41.34;94398.69;4970999;28;9689;-61
2022/08/30 11:12:54;;;;;;;;;;;;;;;29.28;41.78;94396.66;4969325;28;7198;-61
2022/08/30 11:15:28;;;;;;;;;;;;;;;29.28;41.70;94391.13;4971302;28;7280;-61
2022/08/30 11:18:09;;;;;;;;;;;;;;;29.29;41.55;94397.44;4973241;28;7319;-61
2022/08/30 11:21:38;;;;;;;;;;;;;;;29.29;41.30;94400.94;4974639;28;7369;-61
2022/08/30 11:24:07;;;;;;;;;;;;;;;29.28;41.54;94398.69;4856750;29;7433;-61
2022/08/30 11:26:49;;;;;;;;;;;;;;;29.29;41.60;94395.41;4857522;29;9502;-61
2022/08/30 11:29:31;;;;;;;;;;;;;;;29.29;41.22;94391.88;4860742;29;7330;-61
2022/08/30 11:32:17;;;;;;;;;;;;;;;29.29;41.77;94392.63;4858583;29;9799;-61
2022/08/30 11:34:46;;;;;;;;;;;;;;;29.29;42.23;94384.31;4857853;29;9454;-61
2022/08/30 11:37:46;;;;;;;;;;;;;;;29.29;41.69;94378.78;4860990;29;7430;-61
2022/08/30 11:40:43;;;;;;;;;;;;;;;29.30;42.08;94380.25;4851405;29;7222;-61
2022/08/30 11:43:38;;;;;;;;;;;;;;;29.29;41.53;94378.78;4855778;29;9007;-60
2022/08/30 11:46:26;;;;;;;;;;;;;;;29.28;41.61;94377.28;4854373;29;8959;-61
2022/08/30 11:49:25;;;;;;;;;;;;;;;29.27;41.97;94375.81;4853313;29;7274;-61
2022/08/30 11:51:56;;;;;;;;;;;;;;;29.27;42.35;94375.06;4854300;29;7215;-61
2022/08/30 11:58:24;;;;;;;;;;;;;;;29.30;41.74;94368.44;4841861;29;7198;-60
2022/08/30 12:01:16;;;;;;;;;;;;;;;29.33;42.17;94361.81;4881172;29;7414;-60
2022/08/30 12:03:46;;;;;;;;;;;;;;;29.34;41.83;94361.28;4917561;29;7274;-61
2022/08/30 12:06:40;;;;;;;;;;;;;;;29.36;42.25;94363.53;4895809;29;7280;-61
2022/08/30 12:09:33;;;;;;;;;;;;;;;29.38;42.03;94360.97;4895234;29;9461;-60
2022/08/30 12:12:08;;;;;;;;;;;;;;;29.39;41.84;94352.09;4909090;29;7605;-61
2022/08/30 12:14:59;;;;;;;;;;;;;;;29.41;44.53;94349.53;4927940;29;7038;-61
2022/08/30 12:20:42;;;;;;;;;;;;;;;29.51;43.25;94350.59;4925860;29;9103;-61
2022/08/30 12:23:16;;;;;;;;;;;;;;;29.50;42.73;94346.31;4916266;29;7562;-61
2022/08/30 12:26:09;;;;;;;;;;;;;;;29.49;42.60;94346.88;4929474;29;8759;-61
2022/08/30 12:28:36;;;;;;;;;;;;;;;29.50;42.46;94338.00;4930605;29;7232;-61
2022/08/30 12:31:19;;;;;;;;;;;;;;;29.49;42.24;94335.78;4929421;29;9602;-61
2022/08/30 12:33:58;;;;;;;;;;;;;;;29.52;42.53;94331.91;4922932;28;7385;-61
2022/08/30 12:36:54;;;;;;;;;;;;;;;29.54;42.52;94338.41;4984345;28;7351;-61
2022/08/30 12:39:49;;;;;;;;;;;;;;;29.55;42.65;94331.59;4982394;28;7174;-61
2022/08/30 12:42:29;;;;;;;;;;;;;;;29.57;42.12;94322.75;4981888;28;7405;-60
2022/08/30 12:45:12;;;;;;;;;;;;;;;29.57;41.96;94331.06;4988611;28;8987;-60
2022/08/30 12:48:16;;;;;;;;;;;;;;;29.59;41.77;94323.69;4994955;28;7242;-61
2022/08/30 12:50:52;;;;;;;;;;;;;;;29.61;42.64;94320.38;4934488;29;7149;-61
2022/08/30 12:53:40;;;;;;;;;;;;;;;29.62;41.95;94311.50;4946451;28;7603;-61
2022/08/30 12:56:19;;;;;;;;;;;;;;;29.62;42.25;94316.34;4934214;28;8512;-61
2022/08/30 12:58:54;;;;;;;;;;;;;;;29.61;42.70;94317.59;4950410;28;7250;-61
2022/08/30 13:01:29;;;;;;;;;;;;;;;29.60;42.08;94316.13;4948898;28;9689;-61
2022/08/30 13:04:26;;;;;;;;;;;;;;;29.59;41.60;94311.84;4949342;28;7392;-61
2022/08/30 13:07:28;;;;;;;;;;;;;;;29.62;41.32;94313.56;4933346;28;8823;-61
2022/08/30 13:10:18;;;;;;;;;;;;;;;29.63;42.46;94313.00;4866180;29;6988;-60
2022/08/30 13:13:03;;;;;;;;;;;;;;;29.65;42.42;94307.66;4863691;29;7189;-61
2022/08/30 13:15:40;;;;;;;;;;;;;;;29.67;42.40;94301.59;4861990;29;7233;-61
2022/08/30 13:18:28;;;;;;;;;;;;;;;29.68;42.21;94300.31;4878646;29;7184;-61
2022/08/30 13:21:38;;;;;;;;;;;;;;;29.72;42.88;94297.94;4876653;29;7548;-61
2022/08/30 13:24:06;;;;;;;;;;;;;;;29.72;42.54;94290.38;4887923;29;9475;-61
2022/08/30 13:26:36;;;;;;;;;;;;;;;29.73;42.68;94289.06;4895244;29;9114;-61
2022/08/30 13:29:06;;;;;;;;;;;;;;;29.73;41.96;94289.06;4902226;29;7190;-61
2022/08/30 13:31:36;;;;;;;;;;;;;;;29.72;41.99;94287.59;4915233;29;7232;-61
2022/08/30 13:34:03;;;;;;;;;;;;;;;29.73;42.41;94283.53;4907679;29;9997;-61
2022/08/30 13:36:44;;;;;;;;;;;;;;;29.74;41.76;94284.31;4921107;29;7633;-61
2022/08/30 13:39:11;;;;;;;;;;;;;;;29.74;42.41;94279.50;4918589;29;9216;-61
2022/08/30 13:41:38;;;;;;;;;;;;;;;29.74;41.99;94276.00;4900229;29;7440;-61
2022/08/30 13:44:06;;;;;;;;;;;;;;;29.73;42.12;94268.94;4939295;28;9325;-60
2022/08/30 13:46:35;;;;;;;;;;;;;;;29.72;42.38;94259.88;4966874;28;7242;-61
2022/08/30 13:49:17;;;;;;;;;;;;;;;29.73;42.72;94257.84;4997964;28;7053;-61
2022/08/30 13:51:53;;;;;;;;;;;;;;;29.71;42.25;94258.38;5004021;28;7425;-61
2022/08/30 13:54:46;;;;;;;;;;;;;;;29.72;42.55;94251.56;4993119;28;9059;-61
2022/08/30 13:57:13;;;;;;;;;;;;;;;29.70;42.21;94250.63;4987577;28;9838;-61
2022/08/30 13:59:41;;;;;;;;;;;;;;;29.69;42.26;94246.34;4992605;28;7444;-61
2022/08/30 14:02:09;;;;;;;;;;;;;;;29.70;42.80;94242.28;5008108;28;7225;-61
2022/08/30 14:04:46;;;;;;;;;;;;;;;29.70;43.04;94239.53;4994202;28;7375;-61
2022/08/30 14:07:12;;;;;;;;;;;;;;;29.70;42.56;94239.53;5003464;28;7479;-61